sensor_id;sensor_type;location;lat;lon;timestamp;P1;durP1;ratioP1;P2;durP2;ratioP2
22284;SDS011;11311;52.192;20.900;2022-10-15T00:01:48;112.80;;;71.85;;
22284;SDS011;11311;52.192;20.900;2022-10-15T00:04:18;117.80;;;72.68;;
22284;SDS011;11311;52.192;20.900;2022-10-15T00:06:47;102.05;;;69.10;;
22284;SDS011;11311;52.192;20.900;2022-10-15T00:09:15;113.15;;;70.80;;
22284;SDS011;11311;52.192;20.900;2022-10-15T00:11:44;120.97;;;73.60;;
22284;SDS011;11311;52.192;20.900;2022-10-15T00:14:13;108.45;;;67.45;;
22284;SDS011;11311;52.192;20.900;2022-10-15T00:16:42;109.85;;;71.93;;
22284;SDS011;11311;52.192;20.900;2022-10-15T00:19:11;102.22;;;63.33;;
22284;SDS011;11311;52.192;20.900;2022-10-15T00:21:41;118.80;;;68.25;;
22284;SDS011;11311;52.192;20.900;2022-10-15T00:24:10;104.22;;;69.18;;
22284;SDS011;11311;52.192;20.900;2022-10-15T00:26:39;98.70;;;60.80;;
22284;SDS011;11311;52.192;20.900;2022-10-15T00:29:08;107.20;;;70.85;;
22284;SDS011;11311;52.192;20.900;2022-10-15T00:31:40;98.38;;;65.85;;
22284;SDS011;11311;52.192;20.900;2022-10-15T00:34:09;108.78;;;69.72;;
22284;SDS011;11311;52.192;20.900;2022-10-15T00:36:38;103.13;;;67.18;;
22284;SDS011;11311;52.192;20.900;2022-10-15T00:39:09;96.22;;;64.57;;
22284;SDS011;11311;52.192;20.900;2022-10-15T00:41:39;105.88;;;69.18;;
22284;SDS011;11311;52.192;20.900;2022-10-15T00:47:16;125.50;;;72.90;;
22284;SDS011;11311;52.192;20.900;2022-10-15T00:49:47;108.32;;;70.60;;
22284;SDS011;11311;52.192;20.900;2022-10-15T00:52:21;106.65;;;66.93;;
22284;SDS011;11311;52.192;20.900;2022-10-15T00:54:54;105.22;;;66.90;;
22284;SDS011;11311;52.192;20.900;2022-10-15T00:57:24;110.28;;;66.07;;
22284;SDS011;11311;52.192;20.900;2022-10-15T00:59:55;105.13;;;65.10;;
22284;SDS011;11311;52.192;20.900;2022-10-15T01:02:25;109.25;;;68.18;;
22284;SDS011;11311;52.192;20.900;2022-10-15T01:04:54;110.32;;;69.13;;
22284;SDS011;11311;52.192;20.900;2022-10-15T01:07:23;109.13;;;73.13;;
22284;SDS011;11311;52.192;20.900;2022-10-15T01:09:53;118.03;;;73.07;;
22284;SDS011;11311;52.192;20.900;2022-10-15T01:12:25;117.45;;;74.05;;
22284;SDS011;11311;52.192;20.900;2022-10-15T01:15:00;122.78;;;73.57;;
22284;SDS011;11311;52.192;20.900;2022-10-15T01:17:34;128.40;;;73.32;;
22284;SDS011;11311;52.192;20.900;2022-10-15T01:29:33;130.80;;;76.10;;
22284;SDS011;11311;52.192;20.900;2022-10-15T01:32:15;135.05;;;75.65;;
22284;SDS011;11311;52.192;20.900;2022-10-15T01:34:48;121.15;;;73.45;;
22284;SDS011;11311;52.192;20.900;2022-10-15T01:37:22;128.07;;;73.63;;
22284;SDS011;11311;52.192;20.900;2022-10-15T01:39:56;119.20;;;72.72;;
22284;SDS011;11311;52.192;20.900;2022-10-15T01:42:37;125.13;;;72.88;;
22284;SDS011;11311;52.192;20.900;2022-10-15T01:45:09;118.13;;;65.40;;
22284;SDS011;11311;52.192;20.900;2022-10-15T01:47:54;132.77;;;77.32;;
22284;SDS011;11311;52.192;20.900;2022-10-15T01:50:25;128.05;;;73.35;;
22284;SDS011;11311;52.192;20.900;2022-10-15T01:52:54;119.13;;;74.63;;
22284;SDS011;11311;52.192;20.900;2022-10-15T01:55:24;135.25;;;78.35;;
22284;SDS011;11311;52.192;20.900;2022-10-15T01:57:54;133.05;;;79.00;;
22284;SDS011;11311;52.192;20.900;2022-10-15T02:00:25;129.35;;;76.43;;
22284;SDS011;11311;52.192;20.900;2022-10-15T02:02:59;125.47;;;76.57;;
22284;SDS011;11311;52.192;20.900;2022-10-15T02:05:29;139.65;;;76.93;;
22284;SDS011;11311;52.192;20.900;2022-10-15T02:08:27;132.10;;;75.70;;
22284;SDS011;11311;52.192;20.900;2022-10-15T02:11:02;124.75;;;71.00;;
22284;SDS011;11311;52.192;20.900;2022-10-15T02:13:34;103.03;;;62.72;;
22284;SDS011;11311;52.192;20.900;2022-10-15T02:16:10;123.60;;;70.88;;
22284;SDS011;11311;52.192;20.900;2022-10-15T02:21:13;132.73;;;73.43;;
22284;SDS011;11311;52.192;20.900;2022-10-15T02:23:45;118.97;;;68.07;;
22284;SDS011;11311;52.192;20.900;2022-10-15T02:26:17;129.20;;;76.78;;
22284;SDS011;11311;52.192;20.900;2022-10-15T02:28:49;109.28;;;62.67;;
22284;SDS011;11311;52.192;20.900;2022-10-15T02:31:20;116.00;;;66.25;;
22284;SDS011;11311;52.192;20.900;2022-10-15T02:33:53;124.47;;;73.68;;
22284;SDS011;11311;52.192;20.900;2022-10-15T02:36:24;130.32;;;75.30;;
22284;SDS011;11311;52.192;20.900;2022-10-15T02:38:53;122.85;;;74.18;;
22284;SDS011;11311;52.192;20.900;2022-10-15T02:41:24;108.00;;;61.17;;
22284;SDS011;11311;52.192;20.900;2022-10-15T02:43:55;127.20;;;75.57;;
22284;SDS011;11311;52.192;20.900;2022-10-15T02:46:24;128.70;;;74.15;;
22284;SDS011;11311;52.192;20.900;2022-10-15T02:48:55;138.43;;;76.57;;
22284;SDS011;11311;52.192;20.900;2022-10-15T02:51:24;133.77;;;74.65;;
22284;SDS011;11311;52.192;20.900;2022-10-15T02:53:53;115.93;;;71.97;;
22284;SDS011;11311;52.192;20.900;2022-10-15T02:56:23;119.55;;;70.82;;
22284;SDS011;11311;52.192;20.900;2022-10-15T02:58:52;125.88;;;73.25;;
22284;SDS011;11311;52.192;20.900;2022-10-15T03:01:21;127.50;;;71.53;;
22284;SDS011;11311;52.192;20.900;2022-10-15T03:03:50;116.47;;;65.28;;
22284;SDS011;11311;52.192;20.900;2022-10-15T03:06:20;122.57;;;68.05;;
22284;SDS011;11311;52.192;20.900;2022-10-15T03:08:50;125.82;;;71.13;;
22284;SDS011;11311;52.192;20.900;2022-10-15T03:11:20;121.05;;;72.38;;
22284;SDS011;11311;52.192;20.900;2022-10-15T03:13:50;132.83;;;74.50;;
22284;SDS011;11311;52.192;20.900;2022-10-15T03:16:20;132.27;;;72.90;;
22284;SDS011;11311;52.192;20.900;2022-10-15T03:18:49;133.65;;;75.47;;
22284;SDS011;11311;52.192;20.900;2022-10-15T03:21:18;135.32;;;73.25;;
22284;SDS011;11311;52.192;20.900;2022-10-15T03:23:48;129.27;;;74.07;;
22284;SDS011;11311;52.192;20.900;2022-10-15T03:26:21;139.40;;;75.68;;
22284;SDS011;11311;52.192;20.900;2022-10-15T03:28:50;115.93;;;66.18;;
22284;SDS011;11311;52.192;20.900;2022-10-15T03:31:31;136.10;;;74.88;;
22284;SDS011;11311;52.192;20.900;2022-10-15T03:34:02;133.75;;;76.13;;
22284;SDS011;11311;52.192;20.900;2022-10-15T03:36:31;88.72;;;45.83;;
22284;SDS011;11311;52.192;20.900;2022-10-15T03:39:02;115.70;;;64.07;;
22284;SDS011;11311;52.192;20.900;2022-10-15T03:41:35;91.13;;;52.53;;
22284;SDS011;11311;52.192;20.900;2022-10-15T03:44:05;132.03;;;74.70;;
22284;SDS011;11311;52.192;20.900;2022-10-15T03:46:39;133.52;;;73.35;;
22284;SDS011;11311;52.192;20.900;2022-10-15T03:49:08;117.93;;;68.85;;
22284;SDS011;11311;52.192;20.900;2022-10-15T03:51:37;110.03;;;61.72;;
22284;SDS011;11311;52.192;20.900;2022-10-15T03:54:11;111.95;;;67.03;;
22284;SDS011;11311;52.192;20.900;2022-10-15T03:56:47;128.95;;;72.65;;
22284;SDS011;11311;52.192;20.900;2022-10-15T03:59:28;115.93;;;70.20;;
22284;SDS011;11311;52.192;20.900;2022-10-15T04:02:00;121.60;;;71.15;;
22284;SDS011;11311;52.192;20.900;2022-10-15T04:04:30;117.65;;;70.88;;
22284;SDS011;11311;52.192;20.900;2022-10-15T04:06:59;105.95;;;61.15;;
22284;SDS011;11311;52.192;20.900;2022-10-15T04:09:32;109.95;;;59.80;;
22284;SDS011;11311;52.192;20.900;2022-10-15T04:12:20;120.82;;;70.82;;
22284;SDS011;11311;52.192;20.900;2022-10-15T04:14:49;105.68;;;65.68;;
22284;SDS011;11311;52.192;20.900;2022-10-15T04:17:19;105.78;;;61.90;;
22284;SDS011;11311;52.192;20.900;2022-10-15T04:19:48;105.17;;;64.20;;
22284;SDS011;11311;52.192;20.900;2022-10-15T04:22:18;84.90;;;50.63;;
22284;SDS011;11311;52.192;20.900;2022-10-15T04:24:57;103.10;;;63.72;;
22284;SDS011;11311;52.192;20.900;2022-10-15T04:27:27;99.00;;;64.70;;
22284;SDS011;11311;52.192;20.900;2022-10-15T04:30:07;95.45;;;64.15;;
22284;SDS011;11311;52.192;20.900;2022-10-15T04:32:42;93.30;;;58.03;;
22284;SDS011;11311;52.192;20.900;2022-10-15T04:35:12;102.88;;;65.00;;
22284;SDS011;11311;52.192;20.900;2022-10-15T04:37:57;111.10;;;66.20;;
22284;SDS011;11311;52.192;20.900;2022-10-15T04:40:33;92.22;;;57.50;;
22284;SDS011;11311;52.192;20.900;2022-10-15T04:43:02;108.53;;;66.57;;
22284;SDS011;11311;52.192;20.900;2022-10-15T04:45:31;100.93;;;64.28;;
22284;SDS011;11311;52.192;20.900;2022-10-15T04:48:00;100.50;;;64.10;;
22284;SDS011;11311;52.192;20.900;2022-10-15T04:50:29;92.60;;;62.30;;
22284;SDS011;11311;52.192;20.900;2022-10-15T04:53:16;94.47;;;61.72;;
22284;SDS011;11311;52.192;20.900;2022-10-15T04:55:51;97.47;;;61.72;;
22284;SDS011;11311;52.192;20.900;2022-10-15T04:58:19;86.82;;;55.28;;
22284;SDS011;11311;52.192;20.900;2022-10-15T05:00:48;82.13;;;56.35;;
22284;SDS011;11311;52.192;20.900;2022-10-15T05:03:32;89.28;;;61.70;;
22284;SDS011;11311;52.192;20.900;2022-10-15T05:06:07;88.68;;;61.63;;
22284;SDS011;11311;52.192;20.900;2022-10-15T05:08:38;93.63;;;61.88;;
22284;SDS011;11311;52.192;20.900;2022-10-15T05:11:20;86.70;;;59.22;;
22284;SDS011;11311;52.192;20.900;2022-10-15T05:13:49;84.95;;;54.40;;
22284;SDS011;11311;52.192;20.900;2022-10-15T05:16:19;87.43;;;61.20;;
22284;SDS011;11311;52.192;20.900;2022-10-15T05:18:50;84.95;;;56.65;;
22284;SDS011;11311;52.192;20.900;2022-10-15T05:21:20;86.40;;;53.95;;
22284;SDS011;11311;52.192;20.900;2022-10-15T05:23:53;92.70;;;58.85;;
22284;SDS011;11311;52.192;20.900;2022-10-15T05:26:43;90.85;;;60.15;;
22284;SDS011;11311;52.192;20.900;2022-10-15T05:29:14;83.43;;;56.80;;
22284;SDS011;11311;52.192;20.900;2022-10-15T05:31:42;83.82;;;50.22;;
22284;SDS011;11311;52.192;20.900;2022-10-15T05:34:19;75.30;;;55.45;;
22284;SDS011;11311;52.192;20.900;2022-10-15T05:36:58;79.25;;;49.08;;
22284;SDS011;11311;52.192;20.900;2022-10-15T05:39:27;71.72;;;51.53;;
22284;SDS011;11311;52.192;20.900;2022-10-15T05:41:59;78.13;;;55.72;;
22284;SDS011;11311;52.192;20.900;2022-10-15T05:44:36;68.65;;;45.03;;
22284;SDS011;11311;52.192;20.900;2022-10-15T05:47:05;74.13;;;54.17;;
22284;SDS011;11311;52.192;20.900;2022-10-15T05:49:39;77.93;;;55.55;;
22284;SDS011;11311;52.192;20.900;2022-10-15T05:52:13;74.90;;;53.40;;
22284;SDS011;11311;52.192;20.900;2022-10-15T05:55:03;68.90;;;50.17;;
22284;SDS011;11311;52.192;20.900;2022-10-15T05:57:34;72.22;;;53.25;;
22284;SDS011;11311;52.192;20.900;2022-10-15T06:00:04;68.22;;;50.78;;
22284;SDS011;11311;52.192;20.900;2022-10-15T06:02:39;63.80;;;45.13;;
22284;SDS011;11311;52.192;20.900;2022-10-15T06:05:10;71.82;;;52.22;;
22284;SDS011;11311;52.192;20.900;2022-10-15T06:07:38;66.82;;;50.53;;
22284;SDS011;11311;52.192;20.900;2022-10-15T06:10:07;74.18;;;52.05;;
22284;SDS011;11311;52.192;20.900;2022-10-15T06:12:38;60.33;;;47.65;;
22284;SDS011;11311;52.192;20.900;2022-10-15T06:15:07;62.55;;;46.80;;
22284;SDS011;11311;52.192;20.900;2022-10-15T06:17:36;62.65;;;48.58;;
22284;SDS011;11311;52.192;20.900;2022-10-15T06:20:05;66.60;;;40.78;;
22284;SDS011;11311;52.192;20.900;2022-10-15T06:22:34;56.47;;;42.20;;
22284;SDS011;11311;52.192;20.900;2022-10-15T06:25:08;46.25;;;37.83;;
22284;SDS011;11311;52.192;20.900;2022-10-15T06:27:38;48.63;;;37.60;;
22284;SDS011;11311;52.192;20.900;2022-10-15T06:30:08;44.83;;;32.78;;
22284;SDS011;11311;52.192;20.900;2022-10-15T06:32:37;46.77;;;37.40;;
22284;SDS011;11311;52.192;20.900;2022-10-15T06:35:06;44.80;;;29.00;;
22284;SDS011;11311;52.192;20.900;2022-10-15T06:37:34;49.72;;;38.08;;
22284;SDS011;11311;52.192;20.900;2022-10-15T06:40:03;54.35;;;41.70;;
22284;SDS011;11311;52.192;20.900;2022-10-15T06:42:41;47.42;;;34.38;;
22284;SDS011;11311;52.192;20.900;2022-10-15T06:45:10;45.33;;;34.67;;
22284;SDS011;11311;52.192;20.900;2022-10-15T06:47:44;46.13;;;36.58;;
22284;SDS011;11311;52.192;20.900;2022-10-15T06:50:12;47.78;;;37.00;;
22284;SDS011;11311;52.192;20.900;2022-10-15T06:52:41;45.95;;;34.03;;
22284;SDS011;11311;52.192;20.900;2022-10-15T06:55:10;53.00;;;38.92;;
22284;SDS011;11311;52.192;20.900;2022-10-15T06:57:40;42.88;;;30.02;;
22284;SDS011;11311;52.192;20.900;2022-10-15T07:00:13;47.78;;;35.00;;
22284;SDS011;11311;52.192;20.900;2022-10-15T07:02:41;43.72;;;33.65;;
22284;SDS011;11311;52.192;20.900;2022-10-15T07:05:10;42.28;;;29.08;;
22284;SDS011;11311;52.192;20.900;2022-10-15T07:07:39;43.10;;;34.88;;
22284;SDS011;11311;52.192;20.900;2022-10-15T07:10:07;45.65;;;35.20;;
22284;SDS011;11311;52.192;20.900;2022-10-15T07:12:41;38.03;;;28.80;;
22284;SDS011;11311;52.192;20.900;2022-10-15T07:15:10;41.45;;;34.00;;
22284;SDS011;11311;52.192;20.900;2022-10-15T07:17:39;47.22;;;32.22;;
22284;SDS011;11311;52.192;20.900;2022-10-15T07:20:14;39.90;;;31.02;;
22284;SDS011;11311;52.192;20.900;2022-10-15T07:22:49;45.05;;;32.05;;
22284;SDS011;11311;52.192;20.900;2022-10-15T07:25:19;40.93;;;26.30;;
22284;SDS011;11311;52.192;20.900;2022-10-15T07:27:49;38.45;;;32.58;;
22284;SDS011;11311;52.192;20.900;2022-10-15T07:32:48;39.47;;;29.95;;
22284;SDS011;11311;52.192;20.900;2022-10-15T07:35:17;35.83;;;31.77;;
22284;SDS011;11311;52.192;20.900;2022-10-15T07:37:46;40.30;;;35.50;;
22284;SDS011;11311;52.192;20.900;2022-10-15T07:40:16;37.85;;;30.55;;
22284;SDS011;11311;52.192;20.900;2022-10-15T07:42:52;42.92;;;33.95;;
22284;SDS011;11311;52.192;20.900;2022-10-15T07:45:23;37.30;;;25.88;;
22284;SDS011;11311;52.192;20.900;2022-10-15T07:47:52;38.47;;;34.13;;
22284;SDS011;11311;52.192;20.900;2022-10-15T07:50:21;40.78;;;32.90;;
22284;SDS011;11311;52.192;20.900;2022-10-15T07:52:54;29.23;;;18.25;;
22284;SDS011;11311;52.192;20.900;2022-10-15T07:55:23;36.33;;;28.63;;
22284;SDS011;11311;52.192;20.900;2022-10-15T07:57:56;32.60;;;26.35;;
22284;SDS011;11311;52.192;20.900;2022-10-15T08:00:25;37.35;;;28.83;;
22284;SDS011;11311;52.192;20.900;2022-10-15T08:02:54;34.40;;;28.35;;
22284;SDS011;11311;52.192;20.900;2022-10-15T08:05:23;35.50;;;26.80;;
22284;SDS011;11311;52.192;20.900;2022-10-15T08:07:51;31.98;;;28.52;;
22284;SDS011;11311;52.192;20.900;2022-10-15T08:10:20;32.35;;;27.75;;
22284;SDS011;11311;52.192;20.900;2022-10-15T08:12:50;34.03;;;28.17;;
22284;SDS011;11311;52.192;20.900;2022-10-15T08:15:20;33.50;;;25.60;;
22284;SDS011;11311;52.192;20.900;2022-10-15T08:17:49;32.22;;;25.42;;
22284;SDS011;11311;52.192;20.900;2022-10-15T08:20:18;28.85;;;24.02;;
22284;SDS011;11311;52.192;20.900;2022-10-15T08:22:47;30.15;;;26.15;;
22284;SDS011;11311;52.192;20.900;2022-10-15T08:25:16;31.73;;;21.02;;
22284;SDS011;11311;52.192;20.900;2022-10-15T08:27:45;31.55;;;25.13;;
22284;SDS011;11311;52.192;20.900;2022-10-15T08:30:13;36.10;;;30.30;;
22284;SDS011;11311;52.192;20.900;2022-10-15T08:32:44;30.40;;;22.70;;
22284;SDS011;11311;52.192;20.900;2022-10-15T08:37:42;33.28;;;24.77;;
22284;SDS011;11311;52.192;20.900;2022-10-15T08:40:11;30.48;;;26.92;;
22284;SDS011;11311;52.192;20.900;2022-10-15T08:42:41;32.17;;;22.67;;
22284;SDS011;11311;52.192;20.900;2022-10-15T08:45:13;36.60;;;29.63;;
22284;SDS011;11311;52.192;20.900;2022-10-15T08:47:47;33.97;;;28.23;;
22284;SDS011;11311;52.192;20.900;2022-10-15T08:50:21;41.38;;;29.33;;
22284;SDS011;11311;52.192;20.900;2022-10-15T08:52:54;28.10;;;22.15;;
22284;SDS011;11311;52.192;20.900;2022-10-15T08:55:23;32.63;;;24.80;;
22284;SDS011;11311;52.192;20.900;2022-10-15T08:57:57;34.90;;;25.73;;
22284;SDS011;11311;52.192;20.900;2022-10-15T09:00:29;30.92;;;26.92;;
22284;SDS011;11311;52.192;20.900;2022-10-15T09:03:05;26.08;;;20.02;;
22284;SDS011;11311;52.192;20.900;2022-10-15T09:05:41;32.08;;;25.25;;
22284;SDS011;11311;52.192;20.900;2022-10-15T09:08:17;36.85;;;27.83;;
22284;SDS011;11311;52.192;20.900;2022-10-15T09:10:49;40.90;;;28.85;;
22284;SDS011;11311;52.192;20.900;2022-10-15T09:13:23;33.75;;;26.95;;
22284;SDS011;11311;52.192;20.900;2022-10-15T09:15:54;40.92;;;26.75;;
22284;SDS011;11311;52.192;20.900;2022-10-15T09:18:29;33.03;;;24.75;;
22284;SDS011;11311;52.192;20.900;2022-10-15T09:20:59;29.20;;;24.67;;
22284;SDS011;11311;52.192;20.900;2022-10-15T09:23:31;40.30;;;26.77;;
22284;SDS011;11311;52.192;20.900;2022-10-15T09:26:01;34.10;;;27.20;;
22284;SDS011;11311;52.192;20.900;2022-10-15T09:28:39;39.20;;;28.17;;
22284;SDS011;11311;52.192;20.900;2022-10-15T09:31:12;35.42;;;29.02;;
22284;SDS011;11311;52.192;20.900;2022-10-15T09:33:46;33.55;;;27.67;;
22284;SDS011;11311;52.192;20.900;2022-10-15T09:36:31;33.22;;;26.38;;
22284;SDS011;11311;52.192;20.900;2022-10-15T09:39:08;35.35;;;27.50;;
22284;SDS011;11311;52.192;20.900;2022-10-15T09:41:47;32.40;;;22.65;;
22284;SDS011;11311;52.192;20.900;2022-10-15T09:44:21;33.58;;;16.40;;
22284;SDS011;11311;52.192;20.900;2022-10-15T09:46:50;29.17;;;22.83;;
22284;SDS011;11311;52.192;20.900;2022-10-15T09:49:21;31.60;;;28.02;;
22284;SDS011;11311;52.192;20.900;2022-10-15T09:51:54;32.47;;;26.30;;
22284;SDS011;11311;52.192;20.900;2022-10-15T09:54:33;28.42;;;21.70;;
22284;SDS011;11311;52.192;20.900;2022-10-15T09:57:09;27.70;;;20.85;;
22284;SDS011;11311;52.192;20.900;2022-10-15T09:59:50;31.83;;;22.85;;
22284;SDS011;11311;52.192;20.900;2022-10-15T10:02:20;33.00;;;25.65;;
22284;SDS011;11311;52.192;20.900;2022-10-15T10:04:52;32.42;;;24.83;;
22284;SDS011;11311;52.192;20.900;2022-10-15T10:07:28;37.30;;;22.70;;
22284;SDS011;11311;52.192;20.900;2022-10-15T10:09:59;26.63;;;18.98;;
22284;SDS011;11311;52.192;20.900;2022-10-15T10:12:31;28.17;;;19.45;;
22284;SDS011;11311;52.192;20.900;2022-10-15T10:15:04;28.67;;;18.48;;
22284;SDS011;11311;52.192;20.900;2022-10-15T10:17:36;30.00;;;22.10;;
22284;SDS011;11311;52.192;20.900;2022-10-15T10:20:14;25.20;;;18.90;;
22284;SDS011;11311;52.192;20.900;2022-10-15T10:22:44;26.55;;;14.88;;
22284;SDS011;11311;52.192;20.900;2022-10-15T10:25:27;23.75;;;21.25;;
22284;SDS011;11311;52.192;20.900;2022-10-15T10:30:27;21.83;;;14.93;;
22284;SDS011;11311;52.192;20.900;2022-10-15T10:33:00;26.73;;;20.40;;
22284;SDS011;11311;52.192;20.900;2022-10-15T10:35:34;25.30;;;16.90;;
22284;SDS011;11311;52.192;20.900;2022-10-15T10:38:17;25.23;;;19.55;;
22284;SDS011;11311;52.192;20.900;2022-10-15T10:40:51;22.13;;;18.92;;
22284;SDS011;11311;52.192;20.900;2022-10-15T10:43:23;22.90;;;16.85;;
22284;SDS011;11311;52.192;20.900;2022-10-15T10:45:54;26.77;;;19.83;;
22284;SDS011;11311;52.192;20.900;2022-10-15T10:48:26;24.95;;;19.45;;
22284;SDS011;11311;52.192;20.900;2022-10-15T10:51:08;25.08;;;18.77;;
22284;SDS011;11311;52.192;20.900;2022-10-15T10:53:46;23.42;;;19.73;;
22284;SDS011;11311;52.192;20.900;2022-10-15T10:56:20;21.17;;;18.42;;
22284;SDS011;11311;52.192;20.900;2022-10-15T10:58:57;23.42;;;18.52;;
22284;SDS011;11311;52.192;20.900;2022-10-15T11:01:28;19.55;;;15.30;;
22284;SDS011;11311;52.192;20.900;2022-10-15T11:03:59;23.00;;;18.87;;
22284;SDS011;11311;52.192;20.900;2022-10-15T11:06:36;20.13;;;17.23;;
22284;SDS011;11311;52.192;20.900;2022-10-15T11:09:23;23.55;;;18.75;;
22284;SDS011;11311;52.192;20.900;2022-10-15T11:12:06;20.98;;;17.23;;
22284;SDS011;11311;52.192;20.900;2022-10-15T11:14:43;18.50;;;14.68;;
22284;SDS011;11311;52.192;20.900;2022-10-15T11:17:16;19.73;;;16.92;;
22284;SDS011;11311;52.192;20.900;2022-10-15T11:19:50;20.35;;;17.92;;
22284;SDS011;11311;52.192;20.900;2022-10-15T11:22:46;21.17;;;16.55;;
22284;SDS011;11311;52.192;20.900;2022-10-15T11:25:27;17.23;;;15.35;;
22284;SDS011;11311;52.192;20.900;2022-10-15T11:28:06;21.70;;;17.42;;
22284;SDS011;11311;52.192;20.900;2022-10-15T11:30:45;20.17;;;16.17;;
22284;SDS011;11311;52.192;20.900;2022-10-15T11:33:22;19.48;;;12.57;;
22284;SDS011;11311;52.192;20.900;2022-10-15T11:36:04;22.25;;;16.17;;
22284;SDS011;11311;52.192;20.900;2022-10-15T11:38:47;19.60;;;17.60;;
22284;SDS011;11311;52.192;20.900;2022-10-15T11:41:24;24.00;;;18.30;;
22284;SDS011;11311;52.192;20.900;2022-10-15T11:44:03;21.52;;;18.35;;
22284;SDS011;11311;52.192;20.900;2022-10-15T11:46:41;20.45;;;17.42;;
22284;SDS011;11311;52.192;20.900;2022-10-15T11:49:18;27.85;;;18.13;;
22284;SDS011;11311;52.192;20.900;2022-10-15T11:52:01;19.53;;;15.83;;
22284;SDS011;11311;52.192;20.900;2022-10-15T11:54:36;18.95;;;15.02;;
22284;SDS011;11311;52.192;20.900;2022-10-15T11:57:07;21.75;;;17.63;;
22284;SDS011;11311;52.192;20.900;2022-10-15T11:59:37;19.47;;;15.37;;
22284;SDS011;11311;52.192;20.900;2022-10-15T12:02:11;18.40;;;15.93;;
22284;SDS011;11311;52.192;20.900;2022-10-15T12:04:43;21.15;;;15.93;;
22284;SDS011;11311;52.192;20.900;2022-10-15T12:07:15;22.98;;;18.67;;
22284;SDS011;11311;52.192;20.900;2022-10-15T12:09:48;16.35;;;10.40;;
22284;SDS011;11311;52.192;20.900;2022-10-15T12:12:22;22.58;;;19.10;;
22284;SDS011;11311;52.192;20.900;2022-10-15T12:14:59;20.67;;;17.48;;
22284;SDS011;11311;52.192;20.900;2022-10-15T12:17:39;27.10;;;17.63;;
22284;SDS011;11311;52.192;20.900;2022-10-15T12:20:11;17.42;;;14.02;;
22284;SDS011;11311;52.192;20.900;2022-10-15T12:22:52;16.67;;;13.23;;
22284;SDS011;11311;52.192;20.900;2022-10-15T12:25:40;16.73;;;11.98;;
22284;SDS011;11311;52.192;20.900;2022-10-15T12:28:17;21.02;;;16.70;;
22284;SDS011;11311;52.192;20.900;2022-10-15T12:30:57;16.02;;;14.02;;
22284;SDS011;11311;52.192;20.900;2022-10-15T12:33:36;18.30;;;13.03;;
22284;SDS011;11311;52.192;20.900;2022-10-15T12:36:19;24.27;;;15.02;;
22284;SDS011;11311;52.192;20.900;2022-10-15T12:38:56;21.98;;;16.98;;
22284;SDS011;11311;52.192;20.900;2022-10-15T12:44:17;17.88;;;12.50;;
22284;SDS011;11311;52.192;20.900;2022-10-15T12:46:47;19.15;;;16.60;;
22284;SDS011;11311;52.192;20.900;2022-10-15T12:55:27;25.60;;;15.15;;
22284;SDS011;11311;52.192;20.900;2022-10-15T12:58:03;24.45;;;16.65;;
22284;SDS011;11311;52.192;20.900;2022-10-15T13:00:35;17.08;;;12.65;;
22284;SDS011;11311;52.192;20.900;2022-10-15T13:03:10;18.80;;;13.45;;
22284;SDS011;11311;52.192;20.900;2022-10-15T13:05:44;19.63;;;17.63;;
22284;SDS011;11311;52.192;20.900;2022-10-15T13:08:27;22.77;;;17.75;;
22284;SDS011;11311;52.192;20.900;2022-10-15T13:10:57;21.05;;;16.85;;
22284;SDS011;11311;52.192;20.900;2022-10-15T13:13:29;20.35;;;17.25;;
22284;SDS011;11311;52.192;20.900;2022-10-15T13:16:00;23.63;;;15.38;;
22284;SDS011;11311;52.192;20.900;2022-10-15T13:18:30;22.50;;;18.15;;
22284;SDS011;11311;52.192;20.900;2022-10-15T13:20:59;19.77;;;17.55;;
22284;SDS011;11311;52.192;20.900;2022-10-15T13:23:34;21.00;;;16.52;;
22284;SDS011;11311;52.192;20.900;2022-10-15T13:26:14;20.10;;;18.07;;
22284;SDS011;11311;52.192;20.900;2022-10-15T13:28:46;18.25;;;14.35;;
22284;SDS011;11311;52.192;20.900;2022-10-15T13:31:18;19.52;;;15.82;;
22284;SDS011;11311;52.192;20.900;2022-10-15T13:33:57;20.45;;;17.95;;
22284;SDS011;11311;52.192;20.900;2022-10-15T13:36:29;20.83;;;14.13;;
22284;SDS011;11311;52.192;20.900;2022-10-15T13:39:00;22.55;;;18.17;;
22284;SDS011;11311;52.192;20.900;2022-10-15T13:41:32;21.52;;;16.08;;
22284;SDS011;11311;52.192;20.900;2022-10-15T13:44:04;20.92;;;17.50;;
22284;SDS011;11311;52.192;20.900;2022-10-15T13:46:35;24.65;;;17.17;;
22284;SDS011;11311;52.192;20.900;2022-10-15T13:49:08;22.40;;;17.95;;
22284;SDS011;11311;52.192;20.900;2022-10-15T13:51:40;15.35;;;10.93;;
22284;SDS011;11311;52.192;20.900;2022-10-15T13:54:11;21.70;;;13.38;;
22284;SDS011;11311;52.192;20.900;2022-10-15T13:56:43;20.77;;;15.82;;
22284;SDS011;11311;52.192;20.900;2022-10-15T13:59:17;18.75;;;16.38;;
22284;SDS011;11311;52.192;20.900;2022-10-15T14:01:47;23.50;;;15.40;;
22284;SDS011;11311;52.192;20.900;2022-10-15T14:04:20;25.70;;;14.95;;
22284;SDS011;11311;52.192;20.900;2022-10-15T14:06:53;19.52;;;17.52;;
22284;SDS011;11311;52.192;20.900;2022-10-15T14:09:30;21.57;;;18.13;;
22284;SDS011;11311;52.192;20.900;2022-10-15T14:12:00;21.52;;;18.13;;
22284;SDS011;11311;52.192;20.900;2022-10-15T14:14:32;25.50;;;17.60;;
22284;SDS011;11311;52.192;20.900;2022-10-15T14:17:02;24.60;;;18.05;;
22284;SDS011;11311;52.192;20.900;2022-10-15T14:22:00;21.60;;;16.80;;
22284;SDS011;11311;52.192;20.900;2022-10-15T14:24:30;16.75;;;14.95;;
22284;SDS011;11311;52.192;20.900;2022-10-15T14:27:01;19.85;;;15.63;;
22284;SDS011;11311;52.192;20.900;2022-10-15T14:29:37;25.67;;;15.10;;
22284;SDS011;11311;52.192;20.900;2022-10-15T14:32:18;20.67;;;17.58;;
22284;SDS011;11311;52.192;20.900;2022-10-15T14:34:48;24.85;;;18.50;;
22284;SDS011;11311;52.192;20.900;2022-10-15T14:37:28;21.02;;;17.92;;
22284;SDS011;11311;52.192;20.900;2022-10-15T14:40:19;20.33;;;17.08;;
22284;SDS011;11311;52.192;20.900;2022-10-15T14:42:49;19.83;;;16.85;;
22284;SDS011;11311;52.192;20.900;2022-10-15T14:45:33;31.50;;;18.98;;
22284;SDS011;11311;52.192;20.900;2022-10-15T14:48:10;29.15;;;19.60;;
22284;SDS011;11311;52.192;20.900;2022-10-15T14:50:43;25.90;;;17.23;;
22284;SDS011;11311;52.192;20.900;2022-10-15T14:53:15;22.50;;;17.73;;
22284;SDS011;11311;52.192;20.900;2022-10-15T14:55:46;25.65;;;19.30;;
22284;SDS011;11311;52.192;20.900;2022-10-15T14:58:18;23.13;;;18.92;;
22284;SDS011;11311;52.192;20.900;2022-10-15T15:00:55;22.73;;;20.48;;
22284;SDS011;11311;52.192;20.900;2022-10-15T15:03:26;22.25;;;18.90;;
22284;SDS011;11311;52.192;20.900;2022-10-15T15:05:57;22.40;;;19.15;;
22284;SDS011;11311;52.192;20.900;2022-10-15T15:08:26;20.92;;;16.38;;
22284;SDS011;11311;52.192;20.900;2022-10-15T15:13:25;22.52;;;20.13;;
22284;SDS011;11311;52.192;20.900;2022-10-15T15:15:57;20.98;;;17.98;;